createdAt,value
2023-09-18T00:01:38.180Z,86.27
2023-09-18T00:04:06.119Z,86.82
2023-09-18T00:06:34.788Z,86.31
2023-09-18T00:09:02.512Z,86.43
2023-09-18T00:11:30.236Z,86.43
2023-09-18T00:13:57.753Z,86.82
2023-09-18T00:16:26.666Z,86.42
2023-09-18T00:18:54.443Z,86.50
2023-09-18T00:21:22.724Z,87.13
2023-09-18T00:23:50.359Z,86.72
2023-09-18T00:26:17.931Z,86.56
2023-09-18T00:28:50.197Z,86.66
2023-09-18T00:31:18.065Z,86.77
2023-09-18T00:33:45.533Z,86.71
2023-09-18T00:36:13.264Z,86.68
2023-09-18T00:38:40.822Z,86.82
2023-09-18T00:41:08.658Z,86.84
2023-09-18T00:43:36.570Z,86.83
2023-09-18T00:46:04.246Z,86.47
2023-09-18T00:48:31.769Z,86.82
2023-09-18T00:50:59.643Z,86.55
2023-09-18T00:53:28.653Z,86.59
2023-09-18T00:56:01.319Z,86.99
2023-09-18T00:58:29.240Z,86.86
2023-09-18T01:00:57.627Z,87.01
2023-09-18T01:03:27.295Z,86.69
2023-09-18T01:05:56.363Z,87.25
2023-09-18T01:08:24.676Z,87.12
2023-09-18T01:11:15.793Z,87.27
2023-09-18T01:14:14.191Z,87.03
2023-09-18T01:16:52.427Z,86.81
2023-09-18T01:19:37.183Z,87.69
2023-09-18T01:22:06.538Z,87.79
2023-09-18T01:24:39.481Z,87.66
2023-09-18T01:27:11.410Z,87.94
2023-09-18T01:29:38.850Z,88.05
2023-09-18T01:32:06.972Z,87.90
2023-09-18T01:34:38.360Z,87.62
2023-09-18T01:37:07.323Z,88.10
2023-09-18T01:39:39.109Z,87.84
2023-09-18T01:42:08.741Z,88.12
2023-09-18T01:44:36.440Z,88.24
2023-09-18T01:47:06.320Z,88.21
2023-09-18T01:49:39.072Z,88.93
2023-09-18T01:52:09.865Z,88.63
2023-09-18T01:54:37.901Z,88.61
2023-09-18T01:57:06.347Z,88.46
2023-09-18T01:59:34.368Z,88.41
2023-09-18T02:02:09.024Z,88.80
2023-09-18T02:05:07.123Z,89.26
2023-09-18T02:07:27.017Z,89.12
2023-09-18T02:09:54.533Z,89.80
2023-09-18T02:12:22.179Z,89.75
2023-09-18T02:14:49.711Z,89.58
2023-09-18T02:17:17.656Z,89.53
2023-09-18T02:19:45.093Z,89.65
2023-09-18T02:22:12.751Z,89.73
2023-09-18T02:24:40.405Z,89.82
2023-09-18T02:27:08.173Z,89.87
2023-09-18T02:29:35.758Z,90.06
2023-09-18T02:32:04.061Z,90.09
2023-09-18T02:34:31.785Z,90.32
2023-09-18T02:36:59.669Z,90.11
2023-09-18T02:39:27.106Z,90.68
2023-09-18T02:41:55.731Z,90.09
2023-09-18T02:44:23.213Z,90.08
2023-09-18T02:46:50.689Z,90.21
2023-09-18T02:49:18.167Z,90.27
2023-09-18T02:51:45.604Z,90.29
2023-09-18T02:54:13.076Z,90.20
2023-09-18T02:56:40.509Z,90.34
2023-09-18T02:59:08.963Z,89.91
2023-09-18T03:01:36.629Z,90.21
2023-09-18T03:04:05.591Z,90.20
2023-09-18T03:06:34.036Z,90.58
2023-09-18T03:09:04.427Z,90.91
2023-09-18T03:11:33.552Z,90.36
2023-09-18T03:14:01.735Z,90.01
2023-09-18T03:16:29.683Z,90.10
2023-09-18T03:18:57.251Z,90.47
2023-09-18T03:21:25.032Z,90.10
2023-09-18T03:23:52.945Z,90.52
2023-09-18T03:26:20.529Z,90.26
2023-09-18T03:28:48.483Z,90.48
2023-09-18T03:31:16.504Z,90.82
2023-09-18T03:33:44.425Z,90.33
2023-09-18T03:36:13.115Z,90.57
2023-09-18T03:38:40.797Z,90.94
2023-09-18T03:41:09.273Z,90.84
2023-09-18T03:43:36.801Z,90.61
2023-09-18T03:46:07.054Z,90.31
2023-09-18T03:48:41.804Z,90.49
2023-09-18T03:51:11.961Z,90.49
2023-09-18T03:53:40.928Z,90.97
2023-09-18T03:56:09.156Z,90.81
2023-09-18T03:58:37.124Z,90.58
2023-09-18T04:01:04.830Z,90.54
2023-09-18T04:03:32.869Z,90.91
2023-09-18T04:06:00.979Z,90.63
2023-09-18T04:08:28.772Z,91.32
2023-09-18T04:10:59.729Z,90.66
2023-09-18T04:13:27.686Z,90.70
2023-09-18T04:15:58.762Z,90.69
2023-09-18T04:18:27.831Z,90.69
2023-09-18T04:20:56.397Z,91.09
2023-09-18T04:23:30.426Z,91.00
2023-09-18T04:26:01.826Z,90.60
2023-09-18T04:28:30.835Z,90.85
2023-09-18T04:30:58.772Z,90.55
2023-09-18T04:33:27.769Z,90.48
2023-09-18T04:35:55.646Z,90.73
2023-09-18T04:38:23.260Z,91.04
2023-09-18T04:40:58.815Z,90.96
2023-09-18T04:43:26.528Z,90.67
2023-09-18T04:45:54.003Z,90.70
2023-09-18T04:48:21.607Z,90.69
2023-09-18T04:50:50.771Z,90.72
2023-09-18T04:53:19.086Z,90.38
2023-09-18T04:55:50.950Z,90.58
2023-09-18T04:58:19.284Z,91.07
2023-09-18T05:00:48.081Z,90.94
2023-09-18T05:03:16.417Z,91.24
2023-09-18T05:05:45.926Z,91.40
2023-09-18T05:08:13.895Z,91.21
2023-09-18T05:10:41.483Z,91.28
2023-09-18T05:13:09.698Z,91.53
2023-09-18T05:15:37.344Z,91.69
2023-09-18T05:18:05.785Z,91.86
2023-09-18T05:20:35.942Z,91.96
2023-09-18T05:23:03.924Z,92.13
2023-09-18T05:25:34.981Z,92.66
2023-09-18T05:28:02.935Z,92.60
2023-09-18T05:30:36.934Z,92.14
2023-09-18T05:33:08.033Z,92.07
2023-09-18T05:35:44.446Z,92.65
2023-09-18T05:38:15.289Z,93.44
2023-09-18T05:40:43.311Z,92.80
2023-09-18T05:43:11.654Z,93.26
2023-09-18T05:45:39.775Z,93.56
2023-09-18T05:48:07.588Z,93.77
2023-09-18T05:50:39.535Z,93.86
2023-09-18T05:53:07.600Z,94.07
2023-09-18T05:55:36.324Z,94.25
2023-09-18T05:58:06.080Z,94.41
2023-09-18T06:00:33.811Z,93.82
2023-09-18T06:03:01.885Z,93.74
2023-09-18T06:05:32.975Z,94.00
2023-09-18T06:08:01.904Z,93.81
2023-09-18T06:10:29.464Z,93.99
2023-09-18T06:12:57.077Z,94.31
2023-09-18T06:15:24.716Z,93.98
2023-09-18T06:17:52.334Z,94.29
2023-09-18T06:20:20.984Z,94.71
2023-09-18T06:22:48.343Z,95.12
2023-09-18T06:25:16.316Z,95.23
2023-09-18T06:27:43.923Z,95.18
2023-09-18T06:30:11.962Z,95.78
2023-09-18T06:32:39.525Z,95.89
2023-09-18T06:35:07.587Z,95.72
2023-09-18T06:37:35.259Z,95.96
2023-09-18T06:40:05.660Z,95.97
2023-09-18T06:42:33.970Z,96.28
2023-09-18T06:45:03.179Z,96.15
2023-09-18T06:47:32.194Z,96.21
2023-09-18T06:49:59.608Z,96.23
2023-09-18T06:52:28.309Z,96.35
2023-09-18T06:54:55.707Z,96.56
2023-09-18T06:57:23.072Z,96.44
2023-09-18T06:59:50.513Z,96.65
2023-09-18T07:02:18.449Z,96.51
2023-09-18T07:04:48.840Z,96.71
2023-09-18T07:07:17.351Z,96.57
2023-09-18T07:09:59.423Z,96.68
2023-09-18T07:12:33.050Z,97.16
2023-09-18T07:15:05.162Z,97.05
2023-09-18T07:17:33.303Z,97.21
2023-09-18T07:20:01.854Z,97.88
2023-09-18T07:22:31.117Z,97.75
2023-09-18T07:24:59.867Z,97.89
2023-09-18T07:27:27.326Z,98.43
2023-09-18T07:29:58.551Z,98.68
2023-09-18T07:32:37.554Z,99.20
2023-09-18T07:35:07.162Z,99.50
2023-09-18T07:37:34.627Z,100.00
2023-09-18T07:40:02.090Z,100.00
2023-09-18T07:42:29.677Z,100.00
2023-09-18T07:44:59.334Z,100.00
2023-09-18T07:47:27.648Z,100.00
2023-09-18T07:49:56.233Z,100.00
2023-09-18T07:52:23.686Z,100.00
2023-09-18T07:54:51.087Z,100.00
2023-09-18T07:57:18.530Z,100.00
2023-09-18T07:59:45.997Z,100.00
2023-09-18T08:02:13.807Z,100.00
2023-09-18T08:04:41.248Z,100.00
2023-09-18T08:07:09.160Z,100.00
2023-09-18T08:09:40.387Z,100.00
2023-09-18T08:12:10.242Z,100.00
2023-09-18T08:14:38.467Z,100.00
2023-09-18T08:17:09.565Z,100.00
2023-09-18T08:19:38.804Z,100.00
2023-09-18T08:22:06.340Z,100.00
2023-09-18T08:24:33.748Z,100.00
2023-09-18T08:27:01.137Z,100.00
2023-09-18T08:29:28.634Z,100.00
2023-09-18T08:31:56.193Z,100.00
2023-09-18T08:34:24.075Z,100.00
2023-09-18T08:36:52.273Z,99.63
2023-09-18T08:39:19.707Z,99.32
2023-09-18T08:41:52.472Z,98.66
2023-09-18T08:44:21.138Z,99.00
2023-09-18T08:46:48.573Z,99.17
2023-09-18T08:49:16.833Z,99.09
2023-09-18T08:51:45.691Z,98.36
2023-09-18T08:54:14.087Z,98.73
2023-09-18T08:56:41.592Z,98.26
2023-09-18T08:59:09.309Z,97.49
2023-09-18T09:01:37.141Z,97.60
2023-09-18T09:04:05.701Z,97.34
2023-09-18T09:06:33.622Z,97.27
2023-09-18T09:09:01.220Z,97.61
2023-09-18T09:11:28.782Z,98.19
2023-09-18T09:14:13.480Z,98.04
2023-09-18T09:16:42.031Z,98.79
2023-09-18T09:19:09.664Z,98.84
2023-09-18T09:21:45.472Z,98.71
2023-09-18T09:24:15.861Z,98.42
2023-09-18T09:26:44.235Z,99.63
2023-09-18T09:29:21.660Z,98.92
2023-09-18T09:31:49.544Z,99.32
2023-09-18T09:34:28.567Z,99.33
2023-09-18T09:36:57.986Z,99.80
2023-09-18T09:39:27.002Z,100.00
2023-09-18T09:41:54.639Z,99.55
2023-09-18T09:44:22.705Z,100.00
2023-09-18T09:46:51.403Z,99.91
2023-09-18T09:49:21.509Z,99.10
2023-09-18T09:51:48.935Z,99.25
2023-09-18T09:54:35.682Z,99.42
2023-09-18T09:57:06.779Z,99.51
2023-09-18T09:59:36.580Z,98.62
2023-09-18T10:02:04.622Z,97.56
2023-09-18T10:04:35.576Z,98.29
2023-09-18T10:07:10.620Z,97.17
2023-09-18T10:09:42.642Z,96.18
2023-09-18T10:12:16.592Z,95.54
2023-09-18T10:15:01.569Z,95.51
2023-09-18T10:17:31.763Z,94.19
2023-09-18T10:20:17.356Z,93.14
2023-09-18T10:22:51.168Z,93.74
2023-09-18T10:25:32.604Z,94.12
2023-09-18T10:28:02.781Z,92.13
2023-09-18T10:30:31.013Z,92.67
2023-09-18T10:33:00.612Z,91.70
2023-09-18T10:35:29.031Z,91.26
2023-09-18T10:37:56.682Z,91.40
2023-09-18T10:40:27.373Z,90.38
2023-09-18T10:42:55.775Z,89.96
2023-09-18T10:45:22.903Z,89.52
2023-09-18T10:47:52.131Z,89.19
2023-09-18T10:50:27.941Z,90.14
2023-09-18T10:52:55.169Z,89.17
2023-09-18T10:55:23.809Z,89.24
2023-09-18T10:57:53.448Z,88.45
2023-09-18T11:00:24.115Z,88.60
2023-09-18T11:03:09.969Z,88.34
2023-09-18T11:05:37.330Z,88.94
2023-09-18T11:08:37.126Z,88.08
2023-09-18T11:11:14.254Z,87.82
2023-09-18T11:13:57.089Z,87.45
2023-09-18T11:16:27.115Z,87.29
2023-09-18T11:19:18.749Z,88.12
2023-09-18T11:21:46.851Z,87.42
2023-09-18T11:24:22.660Z,86.93
2023-09-18T11:26:52.743Z,85.84
2023-09-18T11:29:24.381Z,86.79
2023-09-18T11:31:56.540Z,86.59
2023-09-18T11:34:29.564Z,85.86
2023-09-18T11:36:57.323Z,83.40
2023-09-18T11:39:39.095Z,84.58
2023-09-18T11:42:27.845Z,84.09
2023-09-18T11:44:56.187Z,84.06
2023-09-18T11:47:28.961Z,83.83
2023-09-18T11:50:00.920Z,83.37
2023-09-18T11:52:31.315Z,83.30
2023-09-18T11:55:02.092Z,83.42
2023-09-18T11:57:30.079Z,83.97
2023-09-18T12:00:01.308Z,84.24
2023-09-18T12:02:42.400Z,83.38
2023-09-18T12:05:19.609Z,83.61
2023-09-18T12:07:48.268Z,83.36
2023-09-18T12:10:22.157Z,83.43
2023-09-18T12:12:49.453Z,82.89
2023-09-18T12:15:20.622Z,82.68
2023-09-18T12:17:47.574Z,82.97
2023-09-18T12:20:21.704Z,83.67
2023-09-18T12:22:51.700Z,83.55
2023-09-18T12:25:19.871Z,83.29
2023-09-18T12:27:47.386Z,83.00
2023-09-18T12:30:21.797Z,82.89
2023-09-18T12:32:51.944Z,82.40
2023-09-18T12:35:22.489Z,82.71
2023-09-18T12:37:50.959Z,82.45
2023-09-18T12:40:27.188Z,82.00
2023-09-18T12:42:56.976Z,82.45
2023-09-18T12:45:25.684Z,82.30
2023-09-18T12:47:55.707Z,82.71
2023-09-18T12:50:23.218Z,83.40
2023-09-18T12:52:50.118Z,83.24
2023-09-18T12:55:28.365Z,83.86
2023-09-18T12:57:56.695Z,83.85
2023-09-18T13:00:27.844Z,83.55
2023-09-18T13:02:57.006Z,83.35
2023-09-18T13:05:33.504Z,83.61
2023-09-18T13:08:07.096Z,84.12
2023-09-18T13:10:48.094Z,84.55
2023-09-18T13:13:23.496Z,84.05
2023-09-18T13:15:53.229Z,85.04
2023-09-18T13:18:24.582Z,84.51
2023-09-18T13:20:52.830Z,85.57
2023-09-18T13:23:22.338Z,85.51
2023-09-18T13:25:49.740Z,86.17
2023-09-18T13:28:18.024Z,87.12
2023-09-18T13:30:44.965Z,86.77
2023-09-18T13:33:17.842Z,86.49
2023-09-18T13:35:46.808Z,86.78
2023-09-18T13:38:15.313Z,86.69
2023-09-18T13:40:45.011Z,87.24
2023-09-18T13:43:12.694Z,87.15
2023-09-18T13:45:40.508Z,87.37
2023-09-18T13:48:08.563Z,87.40
2023-09-18T13:50:37.508Z,87.51
2023-09-18T13:53:05.195Z,87.36
2023-09-18T13:55:33.657Z,87.48
2023-09-18T13:58:04.258Z,87.60
2023-09-18T14:00:32.167Z,87.09
2023-09-18T14:02:59.302Z,86.84
2023-09-18T14:05:27.954Z,87.49
2023-09-18T14:08:00.787Z,86.48
2023-09-18T14:10:28.768Z,86.80
2023-09-18T14:12:55.992Z,85.79
2023-09-18T14:15:41.615Z,86.22
2023-09-18T14:18:28.777Z,86.20
2023-09-18T14:20:58.832Z,86.04
2023-09-18T14:23:27.834Z,86.23
2023-09-18T14:25:55.576Z,85.70
2023-09-18T14:28:23.843Z,86.13
2023-09-18T14:30:51.104Z,86.42
2023-09-18T14:33:18.340Z,84.87
2023-09-18T14:35:45.515Z,84.71
2023-09-18T14:38:14.952Z,85.69
2023-09-18T14:40:43.492Z,85.40
2023-09-18T14:43:10.434Z,84.21
2023-09-18T14:45:39.182Z,84.48
2023-09-18T14:48:06.557Z,84.11
2023-09-18T14:50:34.587Z,83.11
2023-09-18T14:53:01.503Z,83.13
2023-09-18T14:55:28.389Z,82.75
2023-09-18T14:57:55.828Z,82.19
2023-09-18T15:00:22.914Z,81.61
2023-09-18T15:02:50.013Z,80.82
2023-09-18T15:05:19.118Z,81.22
2023-09-18T15:07:46.210Z,81.22
2023-09-18T15:10:13.544Z,80.79
2023-09-18T15:12:42.323Z,80.30
2023-09-18T15:15:09.720Z,79.09
2023-09-18T15:17:38.072Z,78.14
2023-09-18T15:20:07.163Z,74.38
2023-09-18T15:22:34.514Z,72.07
2023-09-18T15:25:02.510Z,70.43
2023-09-18T15:27:29.569Z,69.33
2023-09-18T15:29:56.749Z,68.60
2023-09-18T15:32:24.101Z,67.52
2023-09-18T15:34:51.343Z,66.76
2023-09-18T15:37:18.525Z,66.76
2023-09-18T15:39:45.603Z,66.65
2023-09-18T15:42:12.436Z,64.86
2023-09-18T15:44:39.480Z,64.39
2023-09-18T15:47:07.293Z,61.98
2023-09-18T15:49:34.392Z,60.82
2023-09-18T15:52:01.250Z,60.47
2023-09-18T15:54:28.287Z,60.75
2023-09-18T15:56:56.410Z,59.01
2023-09-18T15:59:23.502Z,57.02
2023-09-18T16:01:50.531Z,56.55
2023-09-18T16:04:17.657Z,56.76
2023-09-18T16:06:45.260Z,55.62
2023-09-18T16:09:15.378Z,56.54
2023-09-18T16:11:47.972Z,56.25
2023-09-18T16:14:16.141Z,55.58
2023-09-18T16:16:43.658Z,55.86
2023-09-18T16:19:10.838Z,56.65
2023-09-18T16:21:37.913Z,56.53
2023-09-18T16:24:08.027Z,56.17
2023-09-18T16:26:34.974Z,55.72
2023-09-18T16:29:01.883Z,56.45
2023-09-18T16:31:30.449Z,56.17
2023-09-18T16:33:57.560Z,56.67
2023-09-18T16:36:24.768Z,56.65
2023-09-18T16:38:51.865Z,55.83
2023-09-18T16:41:19.470Z,55.84
2023-09-18T16:43:46.304Z,55.51
2023-09-18T16:46:13.217Z,55.11
2023-09-18T16:48:40.230Z,55.75
2023-09-18T16:51:09.996Z,55.15
2023-09-18T16:53:37.116Z,55.99
2023-09-18T16:56:04.504Z,55.85
2023-09-18T16:58:31.343Z,55.54
2023-09-18T17:00:59.509Z,56.18
2023-09-18T17:03:26.683Z,56.17
2023-09-18T17:05:53.843Z,56.45
2023-09-18T17:08:21.075Z,56.06
2023-09-18T17:10:48.843Z,56.42
2023-09-18T17:13:15.978Z,57.46
2023-09-18T17:15:42.907Z,56.95
2023-09-18T17:18:11.604Z,57.87
2023-09-18T17:20:39.114Z,56.66
2023-09-18T17:23:06.429Z,57.09
2023-09-18T17:25:34.274Z,57.03
2023-09-18T17:28:05.283Z,57.42
2023-09-18T17:30:32.677Z,56.87
2023-09-18T17:32:59.725Z,57.36
2023-09-18T17:35:26.642Z,57.63
2023-09-18T17:37:53.731Z,57.61
2023-09-18T17:40:20.731Z,57.94
2023-09-18T17:42:48.114Z,57.82
2023-09-18T17:45:15.136Z,57.11
2023-09-18T17:47:42.047Z,56.99
2023-09-18T17:50:09.733Z,57.19
2023-09-18T17:52:37.777Z,57.92
2023-09-18T17:55:06.532Z,58.00
2023-09-18T17:57:36.311Z,57.76
2023-09-18T18:00:12.723Z,58.23
2023-09-18T18:02:40.425Z,57.74
2023-09-18T18:05:08.468Z,58.79
2023-09-18T18:07:35.866Z,58.67
2023-09-18T18:10:02.806Z,58.97
2023-09-18T18:12:29.691Z,58.69
2023-09-18T18:14:56.677Z,59.33
2023-09-18T18:17:23.649Z,59.27
2023-09-18T18:19:51.183Z,60.19
2023-09-18T18:22:18.094Z,60.80
2023-09-18T18:24:45.001Z,60.99
2023-09-18T18:27:11.872Z,62.21
2023-09-18T18:29:39.985Z,62.43
2023-09-18T18:32:08.582Z,62.83
2023-09-18T18:34:36.331Z,64.06
2023-09-18T18:37:03.414Z,64.31
2023-09-18T18:39:30.982Z,65.43
2023-09-18T18:41:57.832Z,66.71
2023-09-18T18:44:24.727Z,67.60
2023-09-18T18:46:51.849Z,68.14
2023-09-18T18:49:18.677Z,68.29
2023-09-18T18:51:45.597Z,68.48
2023-09-18T18:54:12.620Z,69.44
2023-09-18T18:56:39.451Z,70.00
2023-09-18T18:59:07.246Z,69.59
2023-09-18T19:01:36.108Z,69.50
2023-09-18T19:04:03.819Z,70.10
2023-09-18T19:06:30.853Z,70.12
2023-09-18T19:08:59.914Z,70.40
2023-09-18T19:11:27.546Z,70.39
2023-09-18T19:13:54.689Z,70.37
2023-09-18T19:16:21.928Z,70.68
2023-09-18T19:18:49.260Z,70.82
2023-09-18T19:21:17.351Z,71.00
2023-09-18T19:23:45.050Z,71.75
2023-09-18T19:26:12.469Z,71.87
2023-09-18T19:28:40.636Z,72.31
2023-09-18T19:31:09.577Z,72.69
2023-09-18T19:33:40.299Z,72.62
2023-09-18T19:36:08.224Z,72.84
2023-09-18T19:38:38.650Z,73.23
2023-09-18T19:41:09.107Z,73.36
2023-09-18T19:43:36.240Z,73.34
2023-09-18T19:46:03.837Z,73.51
2023-09-18T19:48:32.516Z,73.88
2023-09-18T19:51:02.271Z,74.00
2023-09-18T19:53:30.115Z,74.02
2023-09-18T19:55:57.215Z,73.85
2023-09-18T19:58:24.859Z,74.75
2023-09-18T20:00:56.110Z,74.80
2023-09-18T20:03:24.257Z,75.08
2023-09-18T20:05:54.496Z,75.15
2023-09-18T20:08:21.373Z,74.81
2023-09-18T20:10:48.346Z,75.01
2023-09-18T20:13:15.148Z,75.46
2023-09-18T20:15:42.516Z,75.41
2023-09-18T20:18:09.438Z,75.19
2023-09-18T20:20:36.407Z,75.63
2023-09-18T20:23:03.985Z,75.65
2023-09-18T20:25:30.933Z,75.70
2023-09-18T20:27:57.821Z,76.17
2023-09-18T20:30:25.595Z,76.20
2023-09-18T20:32:52.858Z,76.33
2023-09-18T20:35:19.879Z,76.16
2023-09-18T20:37:46.748Z,76.20
2023-09-18T20:40:14.002Z,76.40
2023-09-18T20:42:40.992Z,76.51
2023-09-18T20:45:08.346Z,76.58
2023-09-18T20:47:38.769Z,76.55
2023-09-18T20:50:07.817Z,77.32
2023-09-18T20:52:37.665Z,76.79
2023-09-18T20:55:07.793Z,77.50
2023-09-18T20:57:34.661Z,77.10
2023-09-18T21:00:01.610Z,77.17
2023-09-18T21:02:28.659Z,77.48
2023-09-18T21:04:55.522Z,77.85
2023-09-18T21:07:22.660Z,78.29
2023-09-18T21:09:51.083Z,78.14
2023-09-18T21:12:23.125Z,78.32
2023-09-18T21:14:50.274Z,78.27
2023-09-18T21:17:17.725Z,78.54
2023-09-18T21:19:44.825Z,78.39
2023-09-18T21:22:12.208Z,78.75
2023-09-18T21:24:39.803Z,78.82
2023-09-18T21:27:07.641Z,78.79
2023-09-18T21:29:34.589Z,78.31
2023-09-18T21:32:04.539Z,78.20
2023-09-18T21:34:34.366Z,79.16
2023-09-18T21:37:01.254Z,79.11
2023-09-18T21:39:28.079Z,79.25
2023-09-18T21:41:54.905Z,79.18
2023-09-18T21:44:21.737Z,79.03
2023-09-18T21:46:48.600Z,79.12
2023-09-18T21:49:15.700Z,79.50
2023-09-18T21:51:42.772Z,79.84
2023-09-18T21:54:12.851Z,79.87
2023-09-18T21:56:39.996Z,79.70
2023-09-18T21:59:07.080Z,80.00
2023-09-18T22:01:36.063Z,80.06
2023-09-18T22:04:07.831Z,79.91
2023-09-18T22:06:35.143Z,80.14
2023-09-18T22:09:02.182Z,80.09
2023-09-18T22:11:31.036Z,80.22
2023-09-18T22:13:58.006Z,80.29
2023-09-18T22:16:24.794Z,80.14
2023-09-18T22:18:51.906Z,80.17
2023-09-18T22:21:19.902Z,80.62
2023-09-18T22:23:47.259Z,80.55
2023-09-18T22:26:14.281Z,80.60
2023-09-18T22:28:41.552Z,80.95
2023-09-18T22:33:47.817Z,80.70
2023-09-18T22:36:26.570Z,81.00
2023-09-18T22:39:11.434Z,81.45
2023-09-18T22:41:40.068Z,81.48
2023-09-18T22:45:03.611Z,81.38
2023-09-18T22:48:27.673Z,81.72
2023-09-18T22:51:51.219Z,82.37
2023-09-18T22:54:19.392Z,82.29
2023-09-18T22:56:48.174Z,82.73
2023-09-18T22:59:15.111Z,82.72
2023-09-18T23:01:42.572Z,83.21
2023-09-18T23:04:14.785Z,83.04
2023-09-18T23:06:43.892Z,83.04
2023-09-18T23:09:17.363Z,82.98
2023-09-18T23:11:44.741Z,82.53
2023-09-18T23:14:11.854Z,82.71
2023-09-18T23:16:39.295Z,82.98
2023-09-18T23:19:06.481Z,83.05
2023-09-18T23:21:33.542Z,83.41
2023-09-18T23:24:00.499Z,83.43
2023-09-18T23:26:30.150Z,83.66
2023-09-18T23:28:56.992Z,83.23
2023-09-18T23:31:23.897Z,82.99
2023-09-18T23:33:50.899Z,83.04
2023-09-18T23:36:18.128Z,82.64
2023-09-18T23:38:48.369Z,82.84
2023-09-18T23:41:15.829Z,83.00
2023-09-18T23:43:45.390Z,83.27
2023-09-18T23:46:15.448Z,83.63
2023-09-18T23:48:46.902Z,83.14
2023-09-18T23:51:15.127Z,83.54
2023-09-18T23:53:42.531Z,83.07
2023-09-18T23:56:13.946Z,83.24
2023-09-18T23:58:44.396Z,83.18
